UUMO 070130Z 17002MPS 070V220 9999 OVC016 M06/M09 Q1034 R25/190055 NOSIG RMK QFE760/1013
QNH:(hPa/inHg/mmHg)1034 / 30.53 / 776
QFE:(hPa/inHg/mmHg)1013 / 29.92 / 760
Temperature-6
Dew Point-9
Visibility> 10000
Weather
Cloud CoverOVC (1600);
Transition Height0 m./600 ft.
Transition LevelFL20
SQUAWK